Terminal Aerodrome Forecast
Issued by NWS

Home | Current Version | Previous Version | Text Only | Print | Product List | Glossary On
Versions: 1 2 3 4 5 6 7 8 9 10 11 12 13 14 15 16 17 18 19 20
000
FTUS41 KPHI 020753 AAB
TAFMIV
TAF AMD
KMIV 020753Z 0208/0306 VRB03KT 3SM BR VCSH SCT090 BKN120
      TEMPO 0208/0212 1SM BR
     FM021500 09004KT P6SM VCSH BKN050 BKN100
     FM021800 13004KT P6SM SHRA BKN050
     FM030000 00000KT P6SM SCT050 BKN150=

USA.gov is the U.S. government's official web portal to all federal, state and local government web resources and services.